sensor_id;sensor_type;location;lat;lon;timestamp;P1;durP1;ratioP1;P2;durP2;ratioP2
75912;SDS011;64592;52.168;21.040;2023-07-09T00:04:02;9.30;;;5.75;;
75912;SDS011;64592;52.168;21.040;2023-07-09T00:09:04;9.15;;;5.65;;
75912;SDS011;64592;52.168;21.040;2023-07-09T00:14:08;8.25;;;6.00;;
75912;SDS011;64592;52.168;21.040;2023-07-09T00:19:11;8.52;;;5.72;;
75912;SDS011;64592;52.168;21.040;2023-07-09T00:29:19;12.25;;;5.22;;
75912;SDS011;64592;52.168;21.040;2023-07-09T00:34:20;8.05;;;5.45;;
75912;SDS011;64592;52.168;21.040;2023-07-09T00:39:25;8.60;;;5.30;;
75912;SDS011;64592;52.168;21.040;2023-07-09T00:44:28;8.02;;;5.75;;
75912;SDS011;64592;52.168;21.040;2023-07-09T00:49:32;7.00;;;5.25;;
75912;SDS011;64592;52.168;21.040;2023-07-09T00:54:42;7.57;;;4.93;;
75912;SDS011;64592;52.168;21.040;2023-07-09T00:59:48;6.47;;;4.78;;
75912;SDS011;64592;52.168;21.040;2023-07-09T01:04:53;8.65;;;4.72;;
75912;SDS011;64592;52.168;21.040;2023-07-09T01:10:00;5.72;;;4.40;;
75912;SDS011;64592;52.168;21.040;2023-07-09T01:15:04;5.82;;;4.70;;
75912;SDS011;64592;52.168;21.040;2023-07-09T01:20:08;7.65;;;4.80;;
75912;SDS011;64592;52.168;21.040;2023-07-09T01:25:11;6.45;;;4.57;;
75912;SDS011;64592;52.168;21.040;2023-07-09T01:30:19;8.63;;;4.78;;
75912;SDS011;64592;52.168;21.040;2023-07-09T01:35:24;6.65;;;4.68;;
75912;SDS011;64592;52.168;21.040;2023-07-09T01:40:27;8.90;;;4.45;;
75912;SDS011;64592;52.168;21.040;2023-07-09T01:45:29;7.07;;;4.13;;
75912;SDS011;64592;52.168;21.040;2023-07-09T01:50:33;6.60;;;4.13;;
75912;SDS011;64592;52.168;21.040;2023-07-09T01:55:36;6.43;;;4.15;;
75912;SDS011;64592;52.168;21.040;2023-07-09T02:00:37;6.70;;;4.35;;
75912;SDS011;64592;52.168;21.040;2023-07-09T02:05:41;8.07;;;4.50;;
75912;SDS011;64592;52.168;21.040;2023-07-09T02:10:44;5.55;;;3.63;;
75912;SDS011;64592;52.168;21.040;2023-07-09T02:15:49;8.18;;;4.18;;
75912;SDS011;64592;52.168;21.040;2023-07-09T02:20:50;5.85;;;4.35;;
75912;SDS011;64592;52.168;21.040;2023-07-09T02:25:53;5.72;;;4.43;;
75912;SDS011;64592;52.168;21.040;2023-07-09T02:30:55;5.70;;;4.00;;
75912;SDS011;64592;52.168;21.040;2023-07-09T02:35:57;6.22;;;5.07;;
75912;SDS011;64592;52.168;21.040;2023-07-09T02:40:59;9.68;;;4.40;;
75912;SDS011;64592;52.168;21.040;2023-07-09T02:46:01;6.53;;;4.25;;
75912;SDS011;64592;52.168;21.040;2023-07-09T02:51:03;6.18;;;4.47;;
75912;SDS011;64592;52.168;21.040;2023-07-09T02:56:06;4.45;;;3.72;;
75912;SDS011;64592;52.168;21.040;2023-07-09T03:01:07;5.93;;;4.00;;
75912;SDS011;64592;52.168;21.040;2023-07-09T03:06:10;7.05;;;4.65;;
75912;SDS011;64592;52.168;21.040;2023-07-09T03:11:13;6.28;;;4.20;;
75912;SDS011;64592;52.168;21.040;2023-07-09T03:16:16;7.85;;;4.32;;
75912;SDS011;64592;52.168;21.040;2023-07-09T03:21:19;5.78;;;4.65;;
75912;SDS011;64592;52.168;21.040;2023-07-09T03:26:22;8.07;;;4.57;;
75912;SDS011;64592;52.168;21.040;2023-07-09T03:31:25;7.85;;;4.55;;
75912;SDS011;64592;52.168;21.040;2023-07-09T03:36:27;7.82;;;4.57;;
75912;SDS011;64592;52.168;21.040;2023-07-09T03:41:30;6.57;;;4.78;;
75912;SDS011;64592;52.168;21.040;2023-07-09T03:46:31;7.57;;;4.40;;
75912;SDS011;64592;52.168;21.040;2023-07-09T03:51:33;7.22;;;4.75;;
75912;SDS011;64592;52.168;21.040;2023-07-09T03:56:36;7.53;;;4.47;;
75912;SDS011;64592;52.168;21.040;2023-07-09T04:01:38;8.73;;;4.70;;
75912;SDS011;64592;52.168;21.040;2023-07-09T04:06:39;7.03;;;4.53;;
75912;SDS011;64592;52.168;21.040;2023-07-09T04:11:43;6.43;;;3.97;;
75912;SDS011;64592;52.168;21.040;2023-07-09T04:16:44;5.90;;;4.30;;
75912;SDS011;64592;52.168;21.040;2023-07-09T04:21:46;4.68;;;3.50;;
75912;SDS011;64592;52.168;21.040;2023-07-09T04:26:50;6.40;;;3.97;;
75912;SDS011;64592;52.168;21.040;2023-07-09T04:31:56;5.78;;;3.63;;
75912;SDS011;64592;52.168;21.040;2023-07-09T04:36:59;6.75;;;3.72;;
75912;SDS011;64592;52.168;21.040;2023-07-09T04:42:02;5.75;;;3.67;;
75912;SDS011;64592;52.168;21.040;2023-07-09T04:47:04;6.57;;;3.80;;
75912;SDS011;64592;52.168;21.040;2023-07-09T04:52:07;6.82;;;3.75;;
75912;SDS011;64592;52.168;21.040;2023-07-09T04:57:12;5.00;;;3.25;;
75912;SDS011;64592;52.168;21.040;2023-07-09T05:02:14;6.57;;;3.28;;
75912;SDS011;64592;52.168;21.040;2023-07-09T05:07:16;7.18;;;3.58;;
75912;SDS011;64592;52.168;21.040;2023-07-09T05:12:19;3.47;;;2.78;;
75912;SDS011;64592;52.168;21.040;2023-07-09T05:17:21;4.78;;;3.70;;
75912;SDS011;64592;52.168;21.040;2023-07-09T05:22:23;4.10;;;2.95;;
75912;SDS011;64592;52.168;21.040;2023-07-09T05:27:26;6.53;;;3.33;;
75912;SDS011;64592;52.168;21.040;2023-07-09T05:32:28;7.53;;;3.40;;
75912;SDS011;64592;52.168;21.040;2023-07-09T05:37:30;5.10;;;3.15;;
75912;SDS011;64592;52.168;21.040;2023-07-09T05:42:33;5.40;;;3.03;;
75912;SDS011;64592;52.168;21.040;2023-07-09T05:47:35;8.57;;;3.10;;
75912;SDS011;64592;52.168;21.040;2023-07-09T05:52:37;5.30;;;2.70;;
75912;SDS011;64592;52.168;21.040;2023-07-09T05:57:40;4.07;;;2.78;;
75912;SDS011;64592;52.168;21.040;2023-07-09T06:02:41;4.88;;;3.10;;
75912;SDS011;64592;52.168;21.040;2023-07-09T06:07:43;3.92;;;2.85;;
75912;SDS011;64592;52.168;21.040;2023-07-09T06:12:46;5.45;;;3.50;;
75912;SDS011;64592;52.168;21.040;2023-07-09T06:17:48;5.00;;;3.17;;
75912;SDS011;64592;52.168;21.040;2023-07-09T06:22:50;3.95;;;2.97;;
75912;SDS011;64592;52.168;21.040;2023-07-09T06:27:53;4.47;;;3.47;;
75912;SDS011;64592;52.168;21.040;2023-07-09T06:32:55;7.28;;;3.53;;
75912;SDS011;64592;52.168;21.040;2023-07-09T06:37:58;5.28;;;3.10;;
75912;SDS011;64592;52.168;21.040;2023-07-09T06:43:01;4.65;;;2.85;;
75912;SDS011;64592;52.168;21.040;2023-07-09T06:48:02;7.88;;;3.70;;
75912;SDS011;64592;52.168;21.040;2023-07-09T06:53:04;5.57;;;2.85;;
75912;SDS011;64592;52.168;21.040;2023-07-09T06:58:07;6.18;;;3.60;;
75912;SDS011;64592;52.168;21.040;2023-07-09T07:03:09;4.80;;;3.10;;
75912;SDS011;64592;52.168;21.040;2023-07-09T07:08:13;6.35;;;3.22;;
75912;SDS011;64592;52.168;21.040;2023-07-09T07:13:17;4.05;;;2.67;;
75912;SDS011;64592;52.168;21.040;2023-07-09T07:18:19;5.22;;;2.65;;
75912;SDS011;64592;52.168;21.040;2023-07-09T07:23:20;4.30;;;2.78;;
75912;SDS011;64592;52.168;21.040;2023-07-09T07:28:24;4.70;;;3.00;;
75912;SDS011;64592;52.168;21.040;2023-07-09T07:33:26;3.40;;;2.67;;
75912;SDS011;64592;52.168;21.040;2023-07-09T07:38:28;7.22;;;2.97;;
75912;SDS011;64592;52.168;21.040;2023-07-09T07:43:30;4.15;;;2.53;;
75912;SDS011;64592;52.168;21.040;2023-07-09T07:48:32;3.75;;;2.53;;
75912;SDS011;64592;52.168;21.040;2023-07-09T07:53:34;3.50;;;2.20;;
75912;SDS011;64592;52.168;21.040;2023-07-09T07:58:37;4.68;;;2.75;;
75912;SDS011;64592;52.168;21.040;2023-07-09T08:03:39;2.63;;;2.00;;
75912;SDS011;64592;52.168;21.040;2023-07-09T08:08:40;5.55;;;2.70;;
75912;SDS011;64592;52.168;21.040;2023-07-09T08:13:43;3.83;;;2.60;;
75912;SDS011;64592;52.168;21.040;2023-07-09T08:18:45;5.53;;;3.15;;
75912;SDS011;64592;52.168;21.040;2023-07-09T08:23:47;4.35;;;2.13;;
75912;SDS011;64592;52.168;21.040;2023-07-09T08:28:50;6.43;;;2.65;;
75912;SDS011;64592;52.168;21.040;2023-07-09T08:33:52;4.28;;;2.45;;
75912;SDS011;64592;52.168;21.040;2023-07-09T08:38:53;4.55;;;2.17;;
75912;SDS011;64592;52.168;21.040;2023-07-09T08:44:05;3.33;;;2.10;;
75912;SDS011;64592;52.168;21.040;2023-07-09T08:49:17;3.80;;;2.33;;
75912;SDS011;64592;52.168;21.040;2023-07-09T08:54:25;4.03;;;2.50;;
75912;SDS011;64592;52.168;21.040;2023-07-09T08:59:34;3.70;;;1.85;;
75912;SDS011;64592;52.168;21.040;2023-07-09T09:04:36;4.68;;;1.70;;
75912;SDS011;64592;52.168;21.040;2023-07-09T09:09:40;3.22;;;2.10;;
75912;SDS011;64592;52.168;21.040;2023-07-09T09:14:52;4.63;;;1.83;;
75912;SDS011;64592;52.168;21.040;2023-07-09T09:19:59;4.07;;;1.60;;
75912;SDS011;64592;52.168;21.040;2023-07-09T09:25:05;3.47;;;1.80;;
75912;SDS011;64592;52.168;21.040;2023-07-09T09:30:22;2.50;;;1.55;;
75912;SDS011;64592;52.168;21.040;2023-07-09T09:35:26;3.85;;;2.28;;
75912;SDS011;64592;52.168;21.040;2023-07-09T09:40:34;4.25;;;2.00;;
75912;SDS011;64592;52.168;21.040;2023-07-09T09:45:38;3.38;;;1.88;;
75912;SDS011;64592;52.168;21.040;2023-07-09T09:50:41;4.25;;;2.00;;
75912;SDS011;64592;52.168;21.040;2023-07-09T09:55:42;4.47;;;1.88;;
75912;SDS011;64592;52.168;21.040;2023-07-09T10:00:49;5.68;;;2.05;;
75912;SDS011;64592;52.168;21.040;2023-07-09T10:05:52;3.30;;;1.60;;
75912;SDS011;64592;52.168;21.040;2023-07-09T10:11:00;2.45;;;1.63;;
75912;SDS011;64592;52.168;21.040;2023-07-09T10:16:17;2.85;;;1.90;;
75912;SDS011;64592;52.168;21.040;2023-07-09T10:21:23;3.10;;;1.48;;
75912;SDS011;64592;52.168;21.040;2023-07-09T10:26:32;2.65;;;1.60;;
75912;SDS011;64592;52.168;21.040;2023-07-09T10:31:44;2.50;;;1.90;;
75912;SDS011;64592;52.168;21.040;2023-07-09T10:37:02;3.25;;;1.85;;
75912;SDS011;64592;52.168;21.040;2023-07-09T10:42:16;4.60;;;1.80;;
75912;SDS011;64592;52.168;21.040;2023-07-09T10:47:27;2.78;;;1.95;;
75912;SDS011;64592;52.168;21.040;2023-07-09T10:52:32;3.70;;;1.70;;
75912;SDS011;64592;52.168;21.040;2023-07-09T10:57:40;2.25;;;1.60;;
75912;SDS011;64592;52.168;21.040;2023-07-09T11:02:48;2.50;;;1.88;;
75912;SDS011;64592;52.168;21.040;2023-07-09T11:08:00;2.40;;;1.60;;
75912;SDS011;64592;52.168;21.040;2023-07-09T11:13:09;3.67;;;1.70;;
75912;SDS011;64592;52.168;21.040;2023-07-09T11:18:19;2.28;;;1.65;;
75912;SDS011;64592;52.168;21.040;2023-07-09T11:23:24;3.28;;;1.70;;
75912;SDS011;64592;52.168;21.040;2023-07-09T11:28:32;2.28;;;1.58;;
75912;SDS011;64592;52.168;21.040;2023-07-09T11:33:44;2.42;;;1.60;;
75912;SDS011;64592;52.168;21.040;2023-07-09T11:38:47;2.58;;;1.52;;
75912;SDS011;64592;52.168;21.040;2023-07-09T11:43:49;2.08;;;1.50;;
75912;SDS011;64592;52.168;21.040;2023-07-09T11:48:52;2.38;;;1.50;;
75912;SDS011;64592;52.168;21.040;2023-07-09T11:53:56;2.92;;;1.80;;
75912;SDS011;64592;52.168;21.040;2023-07-09T11:58:59;2.45;;;1.70;;
75912;SDS011;64592;52.168;21.040;2023-07-09T12:04:02;2.75;;;1.60;;
75912;SDS011;64592;52.168;21.040;2023-07-09T12:09:04;2.30;;;1.45;;
75912;SDS011;64592;52.168;21.040;2023-07-09T12:14:09;3.00;;;1.52;;
75912;SDS011;64592;52.168;21.040;2023-07-09T12:19:14;2.53;;;1.50;;
75912;SDS011;64592;52.168;21.040;2023-07-09T12:24:18;2.47;;;1.63;;
75912;SDS011;64592;52.168;21.040;2023-07-09T12:29:23;2.45;;;1.40;;
75912;SDS011;64592;52.168;21.040;2023-07-09T12:34:30;5.88;;;1.70;;
75912;SDS011;64592;52.168;21.040;2023-07-09T12:39:32;2.28;;;1.65;;
75912;SDS011;64592;52.168;21.040;2023-07-09T12:44:35;2.45;;;1.60;;
75912;SDS011;64592;52.168;21.040;2023-07-09T12:49:40;4.15;;;1.50;;
75912;SDS011;64592;52.168;21.040;2023-07-09T12:54:51;3.30;;;1.50;;
75912;SDS011;64592;52.168;21.040;2023-07-09T12:59:54;5.82;;;1.73;;
75912;SDS011;64592;52.168;21.040;2023-07-09T13:05:02;2.00;;;1.50;;
75912;SDS011;64592;52.168;21.040;2023-07-09T13:10:07;6.25;;;1.70;;
75912;SDS011;64592;52.168;21.040;2023-07-09T13:15:19;3.75;;;1.95;;
75912;SDS011;64592;52.168;21.040;2023-07-09T13:20:24;3.40;;;1.70;;
75912;SDS011;64592;52.168;21.040;2023-07-09T13:25:26;4.45;;;1.88;;
75912;SDS011;64592;52.168;21.040;2023-07-09T13:30:28;3.15;;;1.65;;
75912;SDS011;64592;52.168;21.040;2023-07-09T13:35:33;5.28;;;2.05;;
75912;SDS011;64592;52.168;21.040;2023-07-09T13:40:34;2.72;;;1.83;;
75912;SDS011;64592;52.168;21.040;2023-07-09T13:45:36;2.35;;;1.50;;
75912;SDS011;64592;52.168;21.040;2023-07-09T13:50:39;2.15;;;1.73;;
75912;SDS011;64592;52.168;21.040;2023-07-09T13:55:41;2.65;;;1.70;;
75912;SDS011;64592;52.168;21.040;2023-07-09T14:00:44;3.33;;;1.65;;
75912;SDS011;64592;52.168;21.040;2023-07-09T14:05:48;4.78;;;2.20;;
75912;SDS011;64592;52.168;21.040;2023-07-09T14:10:51;2.28;;;1.80;;
75912;SDS011;64592;52.168;21.040;2023-07-09T14:15:52;2.67;;;1.70;;
75912;SDS011;64592;52.168;21.040;2023-07-09T14:20:55;2.05;;;1.40;;
75912;SDS011;64592;52.168;21.040;2023-07-09T14:25:57;3.38;;;1.95;;
75912;SDS011;64592;52.168;21.040;2023-07-09T14:30:59;3.03;;;1.90;;
75912;SDS011;64592;52.168;21.040;2023-07-09T14:36:03;3.35;;;2.05;;
75912;SDS011;64592;52.168;21.040;2023-07-09T14:41:08;3.47;;;1.83;;
75912;SDS011;64592;52.168;21.040;2023-07-09T14:46:20;5.55;;;1.83;;
75912;SDS011;64592;52.168;21.040;2023-07-09T14:51:23;2.47;;;1.95;;
75912;SDS011;64592;52.168;21.040;2023-07-09T15:01:28;2.28;;;1.75;;
75912;SDS011;64592;52.168;21.040;2023-07-09T15:06:31;2.83;;;1.90;;
75912;SDS011;64592;52.168;21.040;2023-07-09T15:11:33;3.28;;;1.85;;
75912;SDS011;64592;52.168;21.040;2023-07-09T15:16:35;3.47;;;1.80;;
75912;SDS011;64592;52.168;21.040;2023-07-09T15:21:38;3.08;;;2.10;;
75912;SDS011;64592;52.168;21.040;2023-07-09T15:26:40;2.35;;;1.70;;
75912;SDS011;64592;52.168;21.040;2023-07-09T15:31:42;3.47;;;2.08;;
75912;SDS011;64592;52.168;21.040;2023-07-09T15:36:46;3.30;;;2.20;;
75912;SDS011;64592;52.168;21.040;2023-07-09T15:41:48;3.30;;;2.00;;
75912;SDS011;64592;52.168;21.040;2023-07-09T15:46:51;3.50;;;1.85;;
75912;SDS011;64592;52.168;21.040;2023-07-09T15:51:56;2.97;;;1.95;;
75912;SDS011;64592;52.168;21.040;2023-07-09T15:56:58;5.93;;;2.20;;
75912;SDS011;64592;52.168;21.040;2023-07-09T16:02:01;2.70;;;2.00;;
75912;SDS011;64592;52.168;21.040;2023-07-09T16:07:11;4.20;;;2.42;;
75912;SDS011;64592;52.168;21.040;2023-07-09T16:12:13;4.38;;;1.88;;
75912;SDS011;64592;52.168;21.040;2023-07-09T16:17:16;2.90;;;2.10;;
75912;SDS011;64592;52.168;21.040;2023-07-09T16:22:19;3.45;;;2.10;;
75912;SDS011;64592;52.168;21.040;2023-07-09T16:27:21;3.03;;;2.00;;
75912;SDS011;64592;52.168;21.040;2023-07-09T16:32:24;3.17;;;1.90;;
75912;SDS011;64592;52.168;21.040;2023-07-09T16:37:26;2.40;;;1.65;;
75912;SDS011;64592;52.168;21.040;2023-07-09T16:42:28;4.03;;;2.08;;
75912;SDS011;64592;52.168;21.040;2023-07-09T16:47:30;3.58;;;2.17;;
75912;SDS011;64592;52.168;21.040;2023-07-09T16:52:33;3.72;;;2.10;;
75912;SDS011;64592;52.168;21.040;2023-07-09T16:57:35;2.58;;;1.80;;
75912;SDS011;64592;52.168;21.040;2023-07-09T17:02:36;3.10;;;1.95;;
75912;SDS011;64592;52.168;21.040;2023-07-09T17:07:41;4.00;;;2.15;;
75912;SDS011;64592;52.168;21.040;2023-07-09T17:12:43;3.10;;;1.92;;
75912;SDS011;64592;52.168;21.040;2023-07-09T17:17:45;4.57;;;2.35;;
75912;SDS011;64592;52.168;21.040;2023-07-09T17:22:49;5.07;;;2.40;;
75912;SDS011;64592;52.168;21.040;2023-07-09T17:27:54;2.95;;;2.13;;
75912;SDS011;64592;52.168;21.040;2023-07-09T17:32:56;3.47;;;2.13;;
75912;SDS011;64592;52.168;21.040;2023-07-09T17:37:59;2.90;;;2.10;;
75912;SDS011;64592;52.168;21.040;2023-07-09T17:43:02;3.45;;;2.00;;
75912;SDS011;64592;52.168;21.040;2023-07-09T17:48:14;2.55;;;1.63;;
75912;SDS011;64592;52.168;21.040;2023-07-09T17:53:20;2.88;;;1.83;;
75912;SDS011;64592;52.168;21.040;2023-07-09T17:58:24;4.05;;;2.42;;
75912;SDS011;64592;52.168;21.040;2023-07-09T18:08:30;3.50;;;1.90;;
75912;SDS011;64592;52.168;21.040;2023-07-09T18:13:32;5.47;;;1.90;;
75912;SDS011;64592;52.168;21.040;2023-07-09T18:18:34;4.18;;;2.20;;
75912;SDS011;64592;52.168;21.040;2023-07-09T18:23:37;3.58;;;2.17;;
75912;SDS011;64592;52.168;21.040;2023-07-09T18:28:38;3.38;;;2.10;;
75912;SDS011;64592;52.168;21.040;2023-07-09T18:38:46;3.83;;;2.20;;
75912;SDS011;64592;52.168;21.040;2023-07-09T18:43:48;5.78;;;2.10;;
75912;SDS011;64592;52.168;21.040;2023-07-09T18:48:50;3.30;;;2.13;;
75912;SDS011;64592;52.168;21.040;2023-07-09T18:53:53;3.80;;;2.30;;
75912;SDS011;64592;52.168;21.040;2023-07-09T18:58:55;6.20;;;2.30;;
75912;SDS011;64592;52.168;21.040;2023-07-09T19:03:56;3.90;;;1.98;;
75912;SDS011;64592;52.168;21.040;2023-07-09T19:08:59;4.75;;;1.80;;
75912;SDS011;64592;52.168;21.040;2023-07-09T19:14:01;4.57;;;1.92;;
75912;SDS011;64592;52.168;21.040;2023-07-09T19:19:03;4.70;;;2.10;;
75912;SDS011;64592;52.168;21.040;2023-07-09T19:24:11;4.57;;;2.30;;
75912;SDS011;64592;52.168;21.040;2023-07-09T19:29:19;5.53;;;2.70;;
75912;SDS011;64592;52.168;21.040;2023-07-09T19:34:23;3.63;;;2.20;;
75912;SDS011;64592;52.168;21.040;2023-07-09T19:39:29;7.75;;;2.55;;
75912;SDS011;64592;52.168;21.040;2023-07-09T19:44:32;7.22;;;2.53;;
75912;SDS011;64592;52.168;21.040;2023-07-09T19:49:33;6.53;;;2.63;;
75912;SDS011;64592;52.168;21.040;2023-07-09T19:54:36;2.85;;;1.95;;
75912;SDS011;64592;52.168;21.040;2023-07-09T19:59:38;4.25;;;2.58;;
75912;SDS011;64592;52.168;21.040;2023-07-09T20:04:40;4.47;;;2.40;;
75912;SDS011;64592;52.168;21.040;2023-07-09T20:09:43;3.63;;;2.58;;
75912;SDS011;64592;52.168;21.040;2023-07-09T20:14:45;6.22;;;2.70;;
75912;SDS011;64592;52.168;21.040;2023-07-09T20:19:47;5.45;;;2.67;;
75912;SDS011;64592;52.168;21.040;2023-07-09T20:24:50;3.85;;;2.28;;
75912;SDS011;64592;52.168;21.040;2023-07-09T20:29:52;6.57;;;2.95;;
75912;SDS011;64592;52.168;21.040;2023-07-09T20:34:54;5.85;;;2.78;;
75912;SDS011;64592;52.168;21.040;2023-07-09T20:39:57;5.40;;;3.25;;
75912;SDS011;64592;52.168;21.040;2023-07-09T20:44:58;9.02;;;2.95;;
75912;SDS011;64592;52.168;21.040;2023-07-09T20:50:00;8.50;;;3.03;;
75912;SDS011;64592;52.168;21.040;2023-07-09T20:55:04;3.85;;;2.58;;
75912;SDS011;64592;52.168;21.040;2023-07-09T21:00:11;11.68;;;3.25;;
75912;SDS011;64592;52.168;21.040;2023-07-09T21:05:15;7.38;;;3.72;;
75912;SDS011;64592;52.168;21.040;2023-07-09T21:10:21;6.70;;;3.63;;
75912;SDS011;64592;52.168;21.040;2023-07-09T21:15:24;7.50;;;3.22;;
75912;SDS011;64592;52.168;21.040;2023-07-09T21:20:31;6.18;;;2.60;;
75912;SDS011;64592;52.168;21.040;2023-07-09T21:25:34;10.18;;;4.95;;
75912;SDS011;64592;52.168;21.040;2023-07-09T21:30:36;5.57;;;3.13;;
75912;SDS011;64592;52.168;21.040;2023-07-09T21:35:38;6.68;;;3.40;;
75912;SDS011;64592;52.168;21.040;2023-07-09T21:40:42;10.02;;;3.55;;
75912;SDS011;64592;52.168;21.040;2023-07-09T21:45:44;7.20;;;3.90;;
75912;SDS011;64592;52.168;21.040;2023-07-09T21:50:47;5.55;;;2.83;;
75912;SDS011;64592;52.168;21.040;2023-07-09T21:55:51;6.65;;;3.17;;
75912;SDS011;64592;52.168;21.040;2023-07-09T22:00:52;8.05;;;3.35;;
75912;SDS011;64592;52.168;21.040;2023-07-09T22:05:54;6.65;;;3.38;;
75912;SDS011;64592;52.168;21.040;2023-07-09T22:10:57;6.80;;;2.90;;
75912;SDS011;64592;52.168;21.040;2023-07-09T22:15:58;7.03;;;2.92;;
75912;SDS011;64592;52.168;21.040;2023-07-09T22:21:00;6.10;;;3.50;;
75912;SDS011;64592;52.168;21.040;2023-07-09T22:26:03;5.35;;;3.33;;
75912;SDS011;64592;52.168;21.040;2023-07-09T22:31:07;5.72;;;3.40;;
75912;SDS011;64592;52.168;21.040;2023-07-09T22:36:10;4.85;;;2.88;;
75912;SDS011;64592;52.168;21.040;2023-07-09T22:41:14;6.68;;;2.92;;
75912;SDS011;64592;52.168;21.040;2023-07-09T22:46:16;10.70;;;3.30;;
75912;SDS011;64592;52.168;21.040;2023-07-09T22:51:19;6.80;;;3.28;;
75912;SDS011;64592;52.168;21.040;2023-07-09T22:56:22;7.18;;;3.65;;
75912;SDS011;64592;52.168;21.040;2023-07-09T23:01:24;6.15;;;3.65;;
75912;SDS011;64592;52.168;21.040;2023-07-09T23:06:28;7.97;;;3.70;;
75912;SDS011;64592;52.168;21.040;2023-07-09T23:11:33;7.85;;;3.45;;
75912;SDS011;64592;52.168;21.040;2023-07-09T23:16:37;6.55;;;3.80;;
75912;SDS011;64592;52.168;21.040;2023-07-09T23:21:39;5.88;;;3.65;;
75912;SDS011;64592;52.168;21.040;2023-07-09T23:26:44;7.30;;;3.47;;
75912;SDS011;64592;52.168;21.040;2023-07-09T23:31:48;7.68;;;3.72;;
75912;SDS011;64592;52.168;21.040;2023-07-09T23:36:50;6.07;;;3.85;;
75912;SDS011;64592;52.168;21.040;2023-07-09T23:41:53;8.98;;;3.67;;
75912;SDS011;64592;52.168;21.040;2023-07-09T23:46:55;4.97;;;3.17;;
75912;SDS011;64592;52.168;21.040;2023-07-09T23:51:58;9.48;;;3.70;;
75912;SDS011;64592;52.168;21.040;2023-07-09T23:57:01;8.57;;;3.55;;
